Time;durP1;ratioP1;P1;durP2;ratioP2;P2;SDS_P1;SDS_P2;PMS_P1;PMS_P2;Temp;Humidity;BMP_temperature;BMP_pressure;BME280_temperature;BME280_humidity;BME280_pressure;Samples;Min_cycle;Max_cycle;Signal;HPM_P1;HPM_P2
2024/04/06 00:01:36;;;;;;;0.20;0.20;;;;;;;;;;4983593;28;20093;-77
2024/04/06 00:04:04;;;;;;;0.30;0.30;;;;;;;;;;4977839;28;20117;-78
2024/04/06 00:06:30;;;;;;;0.30;0.30;;;;;;;;;;4997905;28;20104;-77
2024/04/06 00:08:56;;;;;;;0.30;0.30;;;;;;;;;;4989466;28;20027;-76
2024/04/06 00:11:22;;;;;;;0.20;0.20;;;;;;;;;;4979695;28;20029;-79
2024/04/06 00:13:50;;;;;;;0.50;0.50;;;;;;;;;;4975271;28;20030;-78
2024/04/06 00:16:16;;;;;;;0.30;0.30;;;;;;;;;;4993111;28;20045;-77
2024/04/06 00:18:42;;;;;;;0.60;0.60;;;;;;;;;;4997618;28;20137;-79
2024/04/06 00:21:08;;;;;;;0.43;0.43;;;;;;;;;;4997796;28;20029;-78
2024/04/06 00:23:34;;;;;;;0.43;0.43;;;;;;;;;;4991841;28;20034;-79
2024/04/06 00:26:00;;;;;;;0.40;0.40;;;;;;;;;;4976241;28;20038;-79
2024/04/06 00:28:27;;;;;;;1.27;0.50;;;;;;;;;;4997314;28;20042;-80
2024/04/06 00:30:54;;;;;;;0.32;0.32;;;;;;;;;;5000566;28;20036;-79
2024/04/06 00:33:21;;;;;;;0.20;0.20;;;;;;;;;;4999866;28;20105;-79
2024/04/06 00:35:47;;;;;;;0.30;0.30;;;;;;;;;;4982668;28;20060;-78
2024/04/06 00:38:13;;;;;;;0.30;0.30;;;;;;;;;;5000939;28;20022;-79
2024/04/06 00:40:40;;;;;;;0.25;0.25;;;;;;;;;;5002139;28;20028;-77
2024/04/06 00:43:06;;;;;;;0.30;0.30;;;;;;;;;;4982566;28;20109;-78
2024/04/06 00:45:32;;;;;;;0.40;0.40;;;;;;;;;;4983458;28;20090;-77
2024/04/06 00:47:59;;;;;;;0.30;0.30;;;;;;;;;;4994320;28;20393;-78
2024/04/06 00:50:26;;;;;;;0.30;0.30;;;;;;;;;;5000353;28;20029;-76
2024/04/06 00:52:54;;;;;;;0.28;0.28;;;;;;;;;;5002613;28;20140;-78
2024/04/06 00:55:20;;;;;;;0.22;0.22;;;;;;;;;;4994236;28;20452;-79
2024/04/06 00:57:47;;;;;;;0.50;0.50;;;;;;;;;;4994042;28;20101;-79
2024/04/06 01:00:13;;;;;;;0.20;0.20;;;;;;;;;;4991423;28;20105;-77
2024/04/06 01:02:40;;;;;;;0.30;0.30;;;;;;;;;;4990316;28;20023;-79
2024/04/06 01:05:06;;;;;;;0.20;0.20;;;;;;;;;;4992233;28;20161;-79
2024/04/06 01:07:33;;;;;;;0.20;0.20;;;;;;;;;;4997543;28;20038;-80
2024/04/06 01:09:59;;;;;;;0.30;0.30;;;;;;;;;;4992924;28;20124;-79
2024/04/06 01:12:25;;;;;;;0.30;0.30;;;;;;;;;;4994082;28;20022;-78
2024/04/06 01:14:52;;;;;;;0.17;0.17;;;;;;;;;;4990713;28;20021;-78
2024/04/06 01:17:18;;;;;;;0.45;0.45;;;;;;;;;;4989882;28;20041;-77
2024/04/06 01:19:44;;;;;;;0.20;0.20;;;;;;;;;;4993211;28;20046;-78
2024/04/06 01:22:10;;;;;;;0.40;0.30;;;;;;;;;;4993656;28;20066;-77
2024/04/06 01:24:37;;;;;;;0.38;0.38;;;;;;;;;;4973864;28;20102;-79
2024/04/06 01:27:07;;;;;;;0.28;0.28;;;;;;;;;;4992513;28;20086;-80
2024/04/06 01:29:34;;;;;;;0.22;0.22;;;;;;;;;;4992686;28;20095;-78
2024/04/06 01:32:00;;;;;;;0.22;0.22;;;;;;;;;;5000302;28;20015;-79
2024/04/06 01:34:29;;;;;;;0.40;0.30;;;;;;;;;;4997181;28;20110;-77
2024/04/06 01:36:55;;;;;;;0.68;0.68;;;;;;;;;;4990239;28;20026;-79
2024/04/06 01:39:21;;;;;;;0.30;0.30;;;;;;;;;;4997062;28;20347;-79
2024/04/06 01:41:51;;;;;;;0.20;0.20;;;;;;;;;;4997020;28;20026;-79
2024/04/06 01:44:17;;;;;;;0.32;0.30;;;;;;;;;;4992896;28;20014;-76
2024/04/06 01:46:43;;;;;;;0.30;0.30;;;;;;;;;;5009381;28;20050;-74
2024/04/06 01:49:10;;;;;;;0.30;0.30;;;;;;;;;;4992585;28;20027;-77
2024/04/06 01:51:36;;;;;;;0.20;0.20;;;;;;;;;;4992789;28;20026;-77
2024/04/06 01:54:02;;;;;;;0.30;0.30;;;;;;;;;;5005276;28;20058;-75
2024/04/06 01:56:29;;;;;;;0.20;0.20;;;;;;;;;;5018009;28;20054;-74
2024/04/06 02:01:49;;;;;;;0.30;0.30;;;;;;;;;;5000183;28;20061;-79
2024/04/06 02:04:15;;;;;;;0.30;0.28;;;;;;;;;;5011737;28;20033;-76
2024/04/06 02:06:41;;;;;;;0.20;0.20;;;;;;;;;;5016694;28;20090;-76
2024/04/06 02:09:07;;;;;;;0.20;0.20;;;;;;;;;;4998816;28;20050;-76
2024/04/06 02:11:33;;;;;;;0.20;0.20;;;;;;;;;;5008389;28;20057;-77
2024/04/06 02:14:00;;;;;;;0.10;0.10;;;;;;;;;;5003135;28;20026;-78
2024/04/06 02:16:26;;;;;;;0.20;0.20;;;;;;;;;;4984037;28;20323;-79
2024/04/06 02:18:52;;;;;;;0.10;0.10;;;;;;;;;;5042317;23;20061;-78
2024/04/06 02:21:18;;;;;;;0.10;0.10;;;;;;;;;;5002261;28;20033;-78
2024/04/06 02:23:44;;;;;;;0.15;0.15;;;;;;;;;;5006829;28;20030;-79
2024/04/06 02:26:11;;;;;;;0.10;0.10;;;;;;;;;;5015577;28;20054;-75
2024/04/06 02:28:37;;;;;;;0.20;0.20;;;;;;;;;;5030137;28;20032;-74
2024/04/06 02:31:03;;;;;;;0.30;0.25;;;;;;;;;;5020195;28;20029;-75
2024/04/06 02:33:30;;;;;;;0.10;0.10;;;;;;;;;;5019859;28;20103;-78
2024/04/06 02:35:56;;;;;;;0.20;0.20;;;;;;;;;;5018493;28;20072;-78
2024/04/06 02:38:22;;;;;;;0.15;0.10;;;;;;;;;;5023845;28;20113;-79
2024/04/06 02:40:49;;;;;;;0.22;0.22;;;;;;;;;;5017476;28;20082;-79
2024/04/06 02:43:15;;;;;;;0.22;0.22;;;;;;;;;;5018041;28;20503;-78
2024/04/06 02:45:41;;;;;;;0.20;0.20;;;;;;;;;;5033313;28;20026;-79
2024/04/06 02:48:07;;;;;;;0.10;0.10;;;;;;;;;;5021094;28;20088;-79
2024/04/06 02:50:34;;;;;;;0.10;0.10;;;;;;;;;;5033309;28;20050;-79
2024/04/06 02:53:00;;;;;;;0.20;0.20;;;;;;;;;;5032784;28;20097;-74
2024/04/06 02:55:26;;;;;;;0.10;0.10;;;;;;;;;;5025657;23;20053;-78
2024/04/06 02:57:52;;;;;;;0.15;0.15;;;;;;;;;;4997131;28;20038;-79
2024/04/06 03:00:18;;;;;;;0.10;0.10;;;;;;;;;;5014465;28;20031;-81
2024/04/06 03:02:44;;;;;;;0.20;0.20;;;;;;;;;;5016655;28;20026;-78
2024/04/06 03:05:11;;;;;;;0.10;0.10;;;;;;;;;;5015725;28;20042;-79
2024/04/06 03:07:37;;;;;;;0.10;0.10;;;;;;;;;;5016970;28;20038;-78
2024/04/06 03:10:04;;;;;;;0.10;0.10;;;;;;;;;;5017522;28;20046;-79
2024/04/06 03:12:30;;;;;;;0.00;0.00;;;;;;;;;;5013606;28;20090;-79
2024/04/06 03:14:56;;;;;;;0.10;0.10;;;;;;;;;;4996220;28;20049;-78
2024/04/06 03:17:22;;;;;;;0.10;0.10;;;;;;;;;;5014072;28;20060;-78
2024/04/06 03:19:49;;;;;;;0.10;0.10;;;;;;;;;;5008982;28;20086;-77
2024/04/06 03:22:15;;;;;;;0.20;0.20;;;;;;;;;;5013909;28;20034;-79
2024/04/06 03:24:41;;;;;;;0.10;0.10;;;;;;;;;;4994531;28;20100;-78
2024/04/06 03:27:07;;;;;;;0.10;0.10;;;;;;;;;;5003288;28;20030;-76
2024/04/06 03:29:33;;;;;;;0.20;0.20;;;;;;;;;;5013209;28;20026;-78
2024/04/06 03:32:00;;;;;;;0.17;0.17;;;;;;;;;;5006585;28;20358;-78
2024/04/06 03:34:26;;;;;;;0.20;0.20;;;;;;;;;;4966238;28;20048;-78
2024/04/06 03:36:52;;;;;;;0.47;0.20;;;;;;;;;;4996413;28;20447;-79
2024/04/06 03:39:18;;;;;;;0.20;0.20;;;;;;;;;;4996444;28;20018;-78
2024/04/06 03:41:44;;;;;;;0.20;0.20;;;;;;;;;;4978257;28;20393;-78
2024/04/06 03:44:11;;;;;;;0.20;0.20;;;;;;;;;;4969343;28;20504;-77
2024/04/06 03:46:37;;;;;;;0.20;0.20;;;;;;;;;;4995601;28;20030;-79
2024/04/06 03:49:03;;;;;;;0.30;0.30;;;;;;;;;;4987695;28;20425;-78
2024/04/06 03:51:29;;;;;;;0.13;0.13;;;;;;;;;;4987268;28;20101;-79
2024/04/06 03:53:55;;;;;;;0.30;0.30;;;;;;;;;;4979311;28;20102;-77
2024/04/06 03:56:21;;;;;;;0.22;0.22;;;;;;;;;;4991008;28;20043;-79
2024/04/06 03:58:48;;;;;;;0.15;0.10;;;;;;;;;;4989278;28;20076;-79
2024/04/06 04:01:14;;;;;;;0.20;0.20;;;;;;;;;;4993766;28;20054;-78
2024/04/06 04:03:40;;;;;;;0.10;0.10;;;;;;;;;;4994088;28;20024;-79
2024/04/06 04:06:06;;;;;;;0.10;0.10;;;;;;;;;;4994433;28;20030;-78
2024/04/06 04:08:33;;;;;;;0.10;0.10;;;;;;;;;;4994476;28;20088;-77
2024/04/06 04:10:59;;;;;;;0.20;0.20;;;;;;;;;;4986666;28;20471;-78
2024/04/06 04:13:25;;;;;;;0.10;0.10;;;;;;;;;;4993949;28;20025;-80
2024/04/06 04:15:51;;;;;;;0.13;0.13;;;;;;;;;;4993730;28;20023;-78
2024/04/06 04:18:17;;;;;;;0.20;0.20;;;;;;;;;;4995300;28;20105;-77
2024/04/06 04:20:44;;;;;;;0.10;0.10;;;;;;;;;;4992242;28;20026;-78
2024/04/06 04:23:10;;;;;;;0.05;0.05;;;;;;;;;;4976395;28;20034;-77
2024/04/06 04:25:36;;;;;;;0.10;0.10;;;;;;;;;;4994253;28;20030;-78
2024/04/06 04:28:03;;;;;;;0.10;0.10;;;;;;;;;;4994226;28;20440;-79
2024/04/06 04:30:29;;;;;;;0.20;0.20;;;;;;;;;;4975174;28;20509;-77
2024/04/06 04:32:56;;;;;;;0.13;0.13;;;;;;;;;;4986716;28;20026;-78
2024/04/06 04:35:22;;;;;;;0.20;0.20;;;;;;;;;;4990761;28;20042;-78
2024/04/06 04:37:48;;;;;;;0.10;0.10;;;;;;;;;;4972442;28;20129;-77
2024/04/06 04:40:15;;;;;;;0.55;0.30;;;;;;;;;;4968455;28;20062;-78
2024/04/06 04:42:41;;;;;;;0.28;0.28;;;;;;;;;;4997138;28;20069;-79
2024/04/06 04:45:14;;;;;;;0.10;0.10;;;;;;;;;;4995295;28;20065;-75
2024/04/06 04:47:41;;;;;;;0.47;0.20;;;;;;;;;;4980784;28;20022;-78
2024/04/06 04:50:11;;;;;;;0.20;0.20;;;;;;;;;;4974524;28;20023;-78
2024/04/06 04:52:37;;;;;;;0.25;0.25;;;;;;;;;;4999943;28;20023;-75
2024/04/06 04:55:07;;;;;;;0.20;0.20;;;;;;;;;;4995903;28;20026;-78
2024/04/06 04:57:33;;;;;;;0.30;0.30;;;;;;;;;;4976382;28;20033;-78
2024/04/06 04:59:59;;;;;;;0.20;0.20;;;;;;;;;;4982130;28;20068;-78
2024/04/06 05:02:25;;;;;;;0.30;0.30;;;;;;;;;;4993934;28;20592;-78
2024/04/06 05:04:52;;;;;;;0.20;0.20;;;;;;;;;;4991870;28;20049;-78
2024/04/06 05:07:22;;;;;;;0.35;0.35;;;;;;;;;;4977368;28;20119;-78
2024/04/06 05:09:48;;;;;;;0.35;0.35;;;;;;;;;;4976323;28;20096;-78
2024/04/06 05:12:14;;;;;;;0.30;0.30;;;;;;;;;;4995134;28;20023;-78
2024/04/06 05:14:41;;;;;;;0.40;0.30;;;;;;;;;;4990877;28;20346;-78
2024/04/06 05:17:07;;;;;;;0.30;0.20;;;;;;;;;;4972181;28;20121;-76
2024/04/06 05:19:35;;;;;;;0.28;0.28;;;;;;;;;;4997024;28;20030;-77
2024/04/06 05:22:01;;;;;;;0.30;0.30;;;;;;;;;;4997305;28;20034;-78
2024/04/06 05:24:27;;;;;;;0.20;0.20;;;;;;;;;;4992412;28;20034;-78
2024/04/06 05:26:53;;;;;;;0.20;0.20;;;;;;;;;;4997171;28;20046;-77
2024/04/06 05:29:19;;;;;;;0.30;0.30;;;;;;;;;;4987795;28;20766;-77
2024/04/06 05:31:46;;;;;;;0.20;0.20;;;;;;;;;;4980495;28;20042;-78
2024/04/06 05:34:12;;;;;;;0.22;0.20;;;;;;;;;;4969856;28;20022;-78
2024/04/06 05:36:39;;;;;;;0.20;0.20;;;;;;;;;;4979611;28;20030;-77
2024/04/06 05:39:05;;;;;;;0.30;0.30;;;;;;;;;;4997831;28;20027;-76
2024/04/06 05:41:31;;;;;;;0.22;0.22;;;;;;;;;;5011715;28;20018;-77
2024/04/06 05:43:57;;;;;;;0.10;0.10;;;;;;;;;;5004820;28;20499;-77
2024/04/06 05:46:23;;;;;;;0.20;0.20;;;;;;;;;;4989809;28;20030;-77
2024/04/06 05:48:49;;;;;;;0.20;0.20;;;;;;;;;;4978812;28;20058;-77
2024/04/06 05:51:16;;;;;;;0.30;0.30;;;;;;;;;;4996542;28;20094;-78
2024/04/06 05:53:42;;;;;;;0.20;0.20;;;;;;;;;;4996768;28;20469;-76
2024/04/06 05:56:08;;;;;;;0.32;0.32;;;;;;;;;;4992148;28;20030;-77
2024/04/06 05:58:35;;;;;;;0.30;0.30;;;;;;;;;;4992412;28;20362;-78
2024/04/06 06:01:01;;;;;;;0.32;0.32;;;;;;;;;;4984639;28;20425;-77
2024/04/06 06:03:28;;;;;;;0.50;0.50;;;;;;;;;;4996070;28;20100;-77
2024/04/06 06:05:54;;;;;;;0.30;0.30;;;;;;;;;;4977801;28;20094;-78
2024/04/06 06:08:20;;;;;;;0.50;0.28;;;;;;;;;;4977190;28;20031;-78
2024/04/06 06:10:46;;;;;;;0.28;0.28;;;;;;;;;;4995349;28;20026;-78
2024/04/06 06:13:12;;;;;;;0.30;0.30;;;;;;;;;;4995749;28;20022;-77
2024/04/06 06:15:39;;;;;;;0.20;0.20;;;;;;;;;;4992785;28;20030;-77
2024/04/06 06:18:05;;;;;;;0.35;0.20;;;;;;;;;;4992958;28;20042;-77
2024/04/06 06:20:31;;;;;;;0.25;0.25;;;;;;;;;;4996071;28;20026;-78
2024/04/06 06:22:58;;;;;;;0.35;0.20;;;;;;;;;;4995679;28;20027;-79
2024/04/06 06:25:24;;;;;;;0.28;0.28;;;;;;;;;;4974928;28;20027;-77
2024/04/06 06:27:51;;;;;;;0.20;0.20;;;;;;;;;;4981291;28;20136;-78
2024/04/06 06:30:17;;;;;;;0.20;0.20;;;;;;;;;;4979626;28;20057;-78
2024/04/06 06:32:43;;;;;;;0.20;0.20;;;;;;;;;;4996542;28;20107;-78
2024/04/06 06:35:11;;;;;;;0.38;0.20;;;;;;;;;;4996733;28;20046;-78
2024/04/06 06:37:37;;;;;;;0.40;0.40;;;;;;;;;;5000485;28;20030;-78
2024/04/06 06:40:04;;;;;;;0.30;0.30;;;;;;;;;;5005853;28;20027;-78
2024/04/06 06:42:30;;;;;;;0.20;0.20;;;;;;;;;;4995213;28;20030;-76
2024/04/06 06:44:56;;;;;;;0.30;0.30;;;;;;;;;;4983210;28;20030;-79
2024/04/06 06:47:24;;;;;;;0.35;0.30;;;;;;;;;;4991395;28;20062;-78
2024/04/06 06:49:50;;;;;;;0.30;0.30;;;;;;;;;;4995500;28;20026;-76
2024/04/06 06:52:16;;;;;;;0.40;0.40;;;;;;;;;;4996849;28;20053;-78
2024/04/06 06:54:42;;;;;;;0.30;0.30;;;;;;;;;;4996476;28;20018;-78
2024/04/06 06:57:09;;;;;;;0.20;0.20;;;;;;;;;;4975981;28;20082;-77
2024/04/06 06:59:35;;;;;;;0.20;0.20;;;;;;;;;;4994768;28;20042;-77
2024/04/06 07:02:01;;;;;;;0.30;0.30;;;;;;;;;;4983483;28;20019;-78
2024/04/06 07:04:27;;;;;;;0.65;0.45;;;;;;;;;;4995439;28;20057;-78
2024/04/06 07:06:54;;;;;;;0.50;0.50;;;;;;;;;;4995110;28;20077;-78
2024/04/06 07:09:20;;;;;;;0.40;0.40;;;;;;;;;;4995631;28;20102;-77
2024/04/06 07:11:46;;;;;;;1.65;0.57;;;;;;;;;;4978473;28;20104;-78
2024/04/06 07:14:12;;;;;;;1.38;0.73;;;;;;;;;;4972764;28;20458;-78
2024/04/06 07:16:39;;;;;;;0.60;0.60;;;;;;;;;;4994930;28;20057;-79
2024/04/06 07:19:06;;;;;;;0.75;0.68;;;;;;;;;;4995817;28;20096;-77
2024/04/06 07:21:32;;;;;;;0.32;0.32;;;;;;;;;;4987072;28;20045;-78
2024/04/06 07:23:59;;;;;;;0.57;0.57;;;;;;;;;;4995829;28;20615;-77
2024/04/06 07:26:25;;;;;;;0.50;0.50;;;;;;;;;;4995611;28;20065;-78
2024/04/06 07:28:54;;;;;;;1.25;0.43;;;;;;;;;;4989222;28;20044;-77
2024/04/06 07:31:20;;;;;;;0.47;0.47;;;;;;;;;;4982403;28;20027;-77
2024/04/06 07:33:48;;;;;;;0.40;0.40;;;;;;;;;;4995853;28;20097;-78
2024/04/06 07:36:14;;;;;;;0.45;0.45;;;;;;;;;;4995012;28;20018;-77
2024/04/06 07:38:40;;;;;;;3.40;0.73;;;;;;;;;;4996196;28;20014;-77
2024/04/06 07:41:06;;;;;;;1.02;0.65;;;;;;;;;;4995372;28;20030;-78
2024/04/06 07:43:32;;;;;;;0.50;0.50;;;;;;;;;;4987408;28;20022;-77
2024/04/06 07:45:58;;;;;;;0.75;0.50;;;;;;;;;;4993739;28;20619;-78
2024/04/06 07:48:27;;;;;;;1.13;0.80;;;;;;;;;;4993779;28;20037;-77
2024/04/06 07:50:53;;;;;;;0.75;0.57;;;;;;;;;;4977741;28;20038;-78
2024/04/06 07:53:19;;;;;;;0.98;0.70;;;;;;;;;;4995228;28;20514;-77
2024/04/06 07:55:46;;;;;;;0.50;0.47;;;;;;;;;;4994877;28;20038;-77
2024/04/06 07:58:12;;;;;;;0.60;0.60;;;;;;;;;;4974114;28;20042;-78
2024/04/06 08:00:38;;;;;;;0.30;0.30;;;;;;;;;;4958971;28;20026;-77
2024/04/06 08:03:05;;;;;;;0.40;0.40;;;;;;;;;;4984872;28;20049;-76
2024/04/06 08:05:31;;;;;;;0.60;0.60;;;;;;;;;;4994755;28;20084;-76
2024/04/06 08:07:58;;;;;;;0.85;0.85;;;;;;;;;;4995243;28;20061;-76
2024/04/06 08:10:24;;;;;;;0.50;0.50;;;;;;;;;;4995387;28;20058;-78
2024/04/06 08:12:51;;;;;;;0.50;0.50;;;;;;;;;;4996289;28;20110;-77
2024/04/06 08:15:17;;;;;;;0.40;0.40;;;;;;;;;;4996638;28;20023;-78
2024/04/06 08:17:52;;;;;;;0.30;0.30;;;;;;;;;;4996345;28;20370;-78
2024/04/06 08:20:19;;;;;;;0.22;0.22;;;;;;;;;;4995452;28;20018;-78
2024/04/06 08:22:45;;;;;;;0.63;0.40;;;;;;;;;;4996915;28;20019;-77
2024/04/06 08:25:12;;;;;;;0.30;0.30;;;;;;;;;;4979188;28;20521;-79
2024/04/06 08:27:39;;;;;;;0.40;0.40;;;;;;;;;;4996264;28;20437;-78
2024/04/06 08:30:06;;;;;;;0.63;0.47;;;;;;;;;;4979583;28;20023;-77
2024/04/06 08:32:33;;;;;;;0.60;0.50;;;;;;;;;;4987489;28;20034;-78
2024/04/06 08:35:00;;;;;;;0.40;0.40;;;;;;;;;;4994436;28;20113;-78
2024/04/06 08:37:26;;;;;;;0.50;0.50;;;;;;;;;;4972182;28;20034;-78
2024/04/06 08:39:52;;;;;;;0.35;0.35;;;;;;;;;;5007385;28;20086;-79
2024/04/06 08:42:19;;;;;;;1.05;0.57;;;;;;;;;;5002255;28;20034;-77
2024/04/06 08:44:46;;;;;;;0.50;0.50;;;;;;;;;;4989585;28;20033;-77
2024/04/06 08:47:13;;;;;;;0.40;0.40;;;;;;;;;;4999640;28;20080;-78
2024/04/06 08:49:40;;;;;;;0.60;0.60;;;;;;;;;;4982580;28;20023;-77
2024/04/06 08:52:07;;;;;;;0.50;0.50;;;;;;;;;;5000409;28;20034;-78
2024/04/06 08:54:34;;;;;;;0.85;0.85;;;;;;;;;;4993760;28;20026;-78
2024/04/06 08:57:00;;;;;;;0.88;0.88;;;;;;;;;;4980281;28;20408;-80
2024/04/06 08:59:27;;;;;;;0.80;0.80;;;;;;;;;;4977227;28;20100;-78
2024/04/06 09:01:53;;;;;;;0.60;0.60;;;;;;;;;;4967594;28;20026;-77
2024/04/06 09:04:20;;;;;;;0.52;0.47;;;;;;;;;;4982391;28;20034;-78
2024/04/06 09:06:47;;;;;;;0.68;0.68;;;;;;;;;;4992076;28;20034;-76
2024/04/06 09:09:13;;;;;;;0.70;0.70;;;;;;;;;;4990210;28;20022;-78
2024/04/06 09:11:40;;;;;;;1.30;1.02;;;;;;;;;;4997457;28;20496;-77
2024/04/06 09:14:06;;;;;;;0.73;0.68;;;;;;;;;;4997763;28;20037;-78
2024/04/06 09:16:34;;;;;;;0.85;0.85;;;;;;;;;;4980054;28;20023;-78
2024/04/06 09:19:00;;;;;;;0.50;0.50;;;;;;;;;;4980726;28;20431;-78
2024/04/06 09:21:26;;;;;;;0.60;0.60;;;;;;;;;;4983028;28;20520;-78
2024/04/06 09:23:55;;;;;;;0.50;0.50;;;;;;;;;;5002452;28;20564;-77
2024/04/06 09:26:22;;;;;;;0.65;0.65;;;;;;;;;;5008017;28;20054;-77
2024/04/06 09:28:52;;;;;;;0.50;0.50;;;;;;;;;;5007686;28;20033;-77
2024/04/06 09:31:23;;;;;;;0.50;0.50;;;;;;;;;;4989802;28;20038;-77
2024/04/06 09:33:53;;;;;;;0.50;0.50;;;;;;;;;;5007259;28;20033;-75
2024/04/06 09:36:20;;;;;;;0.73;0.73;;;;;;;;;;4987401;28;20477;-77
2024/04/06 09:38:49;;;;;;;0.70;0.52;;;;;;;;;;5004559;28;20071;-78
2024/04/06 09:41:16;;;;;;;0.52;0.50;;;;;;;;;;5000592;28;20030;-77
2024/04/06 09:43:43;;;;;;;0.70;0.70;;;;;;;;;;5000435;28;20089;-77
2024/04/06 09:46:10;;;;;;;1.15;0.68;;;;;;;;;;4976992;28;20026;-77
2024/04/06 09:48:37;;;;;;;1.13;0.70;;;;;;;;;;4975702;28;20030;-77
2024/04/06 09:51:05;;;;;;;1.27;0.82;;;;;;;;;;4993305;28;20034;-76
2024/04/06 09:53:32;;;;;;;0.70;0.70;;;;;;;;;;4991281;28;20018;-78
2024/04/06 09:55:58;;;;;;;2.88;1.08;;;;;;;;;;4997594;28;20026;-77
2024/04/06 09:58:28;;;;;;;0.90;0.90;;;;;;;;;;4996136;28;20068;-77
2024/04/06 10:00:54;;;;;;;0.90;0.90;;;;;;;;;;4984503;28;20054;-76
2024/04/06 10:03:33;;;;;;;0.70;0.70;;;;;;;;;;4977907;28;20038;-76
2024/04/06 10:06:09;;;;;;;0.68;0.68;;;;;;;;;;4997830;28;20082;-77
2024/04/06 10:08:46;;;;;;;0.52;0.52;;;;;;;;;;4988629;28;20037;-77
2024/04/06 10:11:13;;;;;;;0.52;0.52;;;;;;;;;;4979609;28;20025;-77
2024/04/06 10:13:40;;;;;;;0.50;0.50;;;;;;;;;;4996943;28;20022;-78
2024/04/06 10:16:07;;;;;;;0.60;0.60;;;;;;;;;;4978999;28;20038;-76
2024/04/06 10:18:34;;;;;;;0.50;0.50;;;;;;;;;;4979773;28;20026;-77
2024/04/06 10:21:10;;;;;;;1.00;0.75;;;;;;;;;;4997940;28;20121;-77
2024/04/06 10:23:39;;;;;;;2.38;1.00;;;;;;;;;;4989112;28;20546;-76
2024/04/06 10:26:06;;;;;;;1.23;0.90;;;;;;;;;;4996441;28;20034;-77
2024/04/06 10:28:32;;;;;;;0.85;0.85;;;;;;;;;;4995421;28;20027;-77
2024/04/06 10:30:59;;;;;;;0.75;0.73;;;;;;;;;;4975447;28;20026;-77
2024/04/06 10:33:25;;;;;;;0.70;0.70;;;;;;;;;;4997891;28;20022;-78
2024/04/06 10:35:53;;;;;;;0.60;0.60;;;;;;;;;;4979878;28;20057;-78
2024/04/06 10:38:20;;;;;;;0.68;0.68;;;;;;;;;;4997996;28;20057;-78
2024/04/06 10:40:46;;;;;;;0.82;0.82;;;;;;;;;;4993197;28;20022;-77
2024/04/06 10:43:12;;;;;;;0.73;0.73;;;;;;;;;;5003887;28;20080;-77
2024/04/06 10:45:38;;;;;;;0.50;0.50;;;;;;;;;;4998584;28;20029;-77
2024/04/06 10:48:05;;;;;;;0.70;0.70;;;;;;;;;;4979699;28;20027;-77
2024/04/06 10:50:32;;;;;;;0.70;0.70;;;;;;;;;;4996840;28;20050;-77
2024/04/06 10:52:59;;;;;;;0.55;0.55;;;;;;;;;;4997638;28;20023;-77
2024/04/06 10:55:26;;;;;;;0.70;0.70;;;;;;;;;;4996953;28;20022;-77
2024/04/06 10:57:56;;;;;;;0.60;0.60;;;;;;;;;;4996710;28;20038;-77
2024/04/06 11:00:23;;;;;;;0.45;0.45;;;;;;;;;;4979378;28;20061;-78
2024/04/06 11:02:49;;;;;;;0.65;0.65;;;;;;;;;;4989947;28;20110;-77
2024/04/06 11:05:15;;;;;;;0.60;0.60;;;;;;;;;;5029609;23;20530;-75
2024/04/06 11:07:42;;;;;;;1.95;1.10;;;;;;;;;;5013141;28;20098;-75
2024/04/06 11:10:09;;;;;;;1.83;0.95;;;;;;;;;;5018620;28;20105;-75
2024/04/06 11:12:39;;;;;;;1.33;1.30;;;;;;;;;;5017396;28;20019;-75
2024/04/06 11:15:07;;;;;;;1.23;1.13;;;;;;;;;;5023980;28;20022;-76
2024/04/06 11:17:33;;;;;;;1.15;1.05;;;;;;;;;;5021615;28;20088;-77
2024/04/06 11:20:00;;;;;;;1.20;1.10;;;;;;;;;;5013900;28;20030;-76
2024/04/06 11:22:26;;;;;;;0.88;0.88;;;;;;;;;;5014442;28;20022;-76
2024/04/06 11:24:53;;;;;;;0.68;0.68;;;;;;;;;;5013625;28;20021;-77
2024/04/06 11:27:22;;;;;;;0.85;0.73;;;;;;;;;;5013002;28;20129;-75
2024/04/06 11:29:49;;;;;;;0.80;0.80;;;;;;;;;;5013508;28;20096;-76
2024/04/06 11:32:22;;;;;;;0.77;0.77;;;;;;;;;;4995074;28;20032;-76
2024/04/06 11:34:48;;;;;;;0.50;0.50;;;;;;;;;;5013420;28;20014;-76
2024/04/06 11:37:16;;;;;;;0.60;0.60;;;;;;;;;;5013458;28;20026;-77
2024/04/06 11:39:42;;;;;;;0.60;0.60;;;;;;;;;;5013569;28;20033;-76
2024/04/06 11:42:08;;;;;;;0.77;0.77;;;;;;;;;;5028211;28;20024;-76
2024/04/06 11:44:34;;;;;;;0.63;0.63;;;;;;;;;;5031534;28;20037;-76
2024/04/06 11:47:01;;;;;;;0.70;0.70;;;;;;;;;;5028042;28;20156;-76
2024/04/06 11:49:27;;;;;;;0.90;0.80;;;;;;;;;;5024109;28;20070;-76
2024/04/06 11:51:53;;;;;;;0.70;0.70;;;;;;;;;;5016624;28;20041;-78
2024/04/06 11:54:19;;;;;;;0.70;0.70;;;;;;;;;;5018641;28;20034;-77
2024/04/06 11:56:45;;;;;;;0.88;0.80;;;;;;;;;;5019422;28;20034;-77
2024/04/06 11:59:12;;;;;;;2.00;0.80;;;;;;;;;;5022504;28;20447;-77
2024/04/06 12:01:41;;;;;;;0.80;0.80;;;;;;;;;;5027528;28;20036;-76
2024/04/06 12:04:07;;;;;;;2.97;0.88;;;;;;;;;;5034800;28;20060;-75
2024/04/06 12:06:37;;;;;;;0.90;0.90;;;;;;;;;;5029528;28;20041;-76
2024/04/06 12:09:13;;;;;;;1.48;0.80;;;;;;;;;;5022639;28;20022;-77
2024/04/06 12:11:39;;;;;;;1.25;0.77;;;;;;;;;;5023001;28;20134;-76
2024/04/06 12:14:05;;;;;;;1.63;0.60;;;;;;;;;;5024179;28;20053;-76
2024/04/06 12:16:32;;;;;;;0.80;0.80;;;;;;;;;;5020200;28;20021;-76
2024/04/06 12:19:00;;;;;;;0.70;0.70;;;;;;;;;;5029356;28;20021;-76
2024/04/06 12:21:26;;;;;;;0.60;0.60;;;;;;;;;;5018216;28;20046;-76
2024/04/06 12:23:53;;;;;;;0.70;0.70;;;;;;;;;;5009863;28;20045;-77
2024/04/06 12:26:19;;;;;;;0.70;0.70;;;;;;;;;;5018419;28;20072;-77
2024/04/06 12:28:46;;;;;;;0.75;0.75;;;;;;;;;;5014241;28;20106;-76
2024/04/06 12:31:12;;;;;;;1.23;1.02;;;;;;;;;;4996004;28;20341;-78
2024/04/06 12:33:38;;;;;;;1.10;1.02;;;;;;;;;;5013683;28;20092;-76
2024/04/06 12:36:05;;;;;;;0.70;0.70;;;;;;;;;;4997735;28;20021;-77
2024/04/06 12:38:31;;;;;;;2.65;0.60;;;;;;;;;;5026397;28;20499;-76
2024/04/06 12:40:57;;;;;;;0.95;0.60;;;;;;;;;;5034780;28;20041;-76
2024/04/06 12:43:23;;;;;;;1.35;0.80;;;;;;;;;;5034518;28;20069;-77
2024/04/06 12:45:49;;;;;;;1.55;0.80;;;;;;;;;;5025566;28;20595;-76
2024/04/06 12:48:16;;;;;;;1.35;0.88;;;;;;;;;;5013868;28;20088;-77
2024/04/06 12:50:46;;;;;;;0.77;0.63;;;;;;;;;;5013991;28;20018;-76
2024/04/06 12:53:13;;;;;;;0.52;0.52;;;;;;;;;;5014123;28;20030;-77
2024/04/06 12:55:39;;;;;;;0.60;0.60;;;;;;;;;;5014251;28;20045;-76
2024/04/06 12:58:05;;;;;;;0.80;0.80;;;;;;;;;;5013493;28;20036;-77
2024/04/06 13:00:34;;;;;;;0.85;0.60;;;;;;;;;;5002490;28;20054;-77
2024/04/06 13:03:01;;;;;;;0.60;0.60;;;;;;;;;;5006996;28;20022;-77
2024/04/06 13:05:27;;;;;;;1.25;0.80;;;;;;;;;;5010874;28;20502;-76
2024/04/06 13:07:53;;;;;;;0.50;0.50;;;;;;;;;;5006612;28;20070;-76
2024/04/06 13:10:25;;;;;;;1.63;0.60;;;;;;;;;;5012460;28;20029;-77
2024/04/06 13:12:51;;;;;;;0.63;0.63;;;;;;;;;;5012910;28;20022;-76
2024/04/06 13:15:17;;;;;;;1.10;0.93;;;;;;;;;;5012069;28;20022;-76
2024/04/06 13:17:44;;;;;;;0.60;0.60;;;;;;;;;;5012360;28;20021;-76
2024/04/06 13:20:20;;;;;;;0.80;0.80;;;;;;;;;;5012321;28;20057;-76
2024/04/06 13:22:49;;;;;;;1.85;0.95;;;;;;;;;;5005061;28;20022;-77
2024/04/06 13:25:16;;;;;;;0.90;0.68;;;;;;;;;;5012252;28;20018;-75
2024/04/06 13:27:43;;;;;;;0.80;0.73;;;;;;;;;;5012286;28;20022;-74
2024/04/06 13:30:09;;;;;;;0.70;0.70;;;;;;;;;;5013462;28;20024;-76
2024/04/06 13:32:36;;;;;;;0.60;0.60;;;;;;;;;;5013333;28;21375;-76
2024/04/06 13:35:06;;;;;;;0.73;0.73;;;;;;;;;;5017047;28;20022;-75
2024/04/06 13:37:33;;;;;;;0.95;0.65;;;;;;;;;;4999000;28;20029;-75
2024/04/06 13:39:59;;;;;;;0.70;0.70;;;;;;;;;;5014789;28;20024;-76
2024/04/06 13:42:26;;;;;;;0.93;0.93;;;;;;;;;;5016553;28;20034;-75
2024/04/06 13:44:52;;;;;;;0.88;0.80;;;;;;;;;;5015998;28;20018;-75
2024/04/06 13:47:19;;;;;;;0.60;0.60;;;;;;;;;;5006987;28;20404;-77
2024/04/06 13:49:45;;;;;;;0.70;0.70;;;;;;;;;;5016086;28;20021;-75
2024/04/06 13:52:11;;;;;;;0.90;0.88;;;;;;;;;;5016225;28;20526;-75
2024/04/06 13:54:37;;;;;;;0.70;0.70;;;;;;;;;;5015746;28;20021;-75
2024/04/06 13:57:07;;;;;;;0.82;0.73;;;;;;;;;;5013970;28;20085;-75
2024/04/06 13:59:33;;;;;;;0.70;0.70;;;;;;;;;;5018716;28;20022;-76
2024/04/06 14:02:00;;;;;;;0.60;0.60;;;;;;;;;;5013616;28;20564;-76
2024/04/06 14:04:27;;;;;;;0.60;0.60;;;;;;;;;;5016625;28;20038;-75
2024/04/06 14:06:53;;;;;;;0.80;0.80;;;;;;;;;;5016839;28;20391;-76
2024/04/06 14:09:19;;;;;;;0.70;0.70;;;;;;;;;;5014322;28;20476;-75
2024/04/06 14:11:46;;;;;;;1.20;0.90;;;;;;;;;;5014454;28;20032;-75
2024/04/06 14:14:22;;;;;;;1.00;1.00;;;;;;;;;;5016975;28;20025;-76
2024/04/06 14:16:49;;;;;;;0.70;0.70;;;;;;;;;;5014451;28;20022;-76
2024/04/06 14:19:19;;;;;;;1.10;1.00;;;;;;;;;;5015748;28;20076;-75
2024/04/06 14:21:46;;;;;;;0.75;0.75;;;;;;;;;;5016020;28;20129;-76
2024/04/06 14:24:12;;;;;;;1.27;0.93;;;;;;;;;;5015204;28;20127;-76
2024/04/06 14:26:38;;;;;;;0.77;0.77;;;;;;;;;;5011531;28;20045;-76
2024/04/06 14:29:04;;;;;;;0.80;0.80;;;;;;;;;;5014495;28;20028;-76
2024/04/06 14:31:32;;;;;;;0.70;0.70;;;;;;;;;;5013256;28;20032;-76
2024/04/06 14:33:58;;;;;;;0.70;0.70;;;;;;;;;;5005188;28;20026;-76
2024/04/06 14:36:24;;;;;;;0.93;0.80;;;;;;;;;;5014999;28;20089;-76
2024/04/06 14:38:50;;;;;;;0.75;0.70;;;;;;;;;;5016171;28;20024;-75
2024/04/06 14:41:16;;;;;;;2.47;0.57;;;;;;;;;;5015430;28;20045;-75
2024/04/06 14:43:43;;;;;;;0.68;0.68;;;;;;;;;;5014909;28;20014;-76